sensor_id;sensor_type;location;lat;lon;timestamp;temperature;humidity
25983;DHT22;13773;48.868;10.730;2023-04-03T00:02:14;2.10;99.90
25983;DHT22;13773;48.868;10.730;2023-04-03T00:04:40;2.10;99.90
25983;DHT22;13773;48.868;10.730;2023-04-03T00:07:06;2.10;99.90
25983;DHT22;13773;48.868;10.730;2023-04-03T00:09:32;2.10;99.90
25983;DHT22;13773;48.868;10.730;2023-04-03T00:12:00;2.10;99.90
25983;DHT22;13773;48.868;10.730;2023-04-03T00:14:26;2.10;99.90
25983;DHT22;13773;48.868;10.730;2023-04-03T00:16:53;2.10;99.90
25983;DHT22;13773;48.868;10.730;2023-04-03T00:19:19;1.80;99.90
25983;DHT22;13773;48.868;10.730;2023-04-03T00:21:45;2.10;99.90
25983;DHT22;13773;48.868;10.730;2023-04-03T00:24:11;2.10;99.90
25983;DHT22;13773;48.868;10.730;2023-04-03T00:26:36;2.10;99.90
25983;DHT22;13773;48.868;10.730;2023-04-03T00:29:02;2.10;99.90
25983;DHT22;13773;48.868;10.730;2023-04-03T00:31:28;2.10;99.90
25983;DHT22;13773;48.868;10.730;2023-04-03T00:33:54;2.10;99.90
25983;DHT22;13773;48.868;10.730;2023-04-03T00:36:19;2.10;99.90
25983;DHT22;13773;48.868;10.730;2023-04-03T00:38:45;2.10;99.90
25983;DHT22;13773;48.868;10.730;2023-04-03T00:41:11;2.10;99.90
25983;DHT22;13773;48.868;10.730;2023-04-03T00:43:37;2.10;99.90
25983;DHT22;13773;48.868;10.730;2023-04-03T00:46:02;2.10;99.90
25983;DHT22;13773;48.868;10.730;2023-04-03T00:48:34;2.10;99.90
25983;DHT22;13773;48.868;10.730;2023-04-03T00:51:01;2.10;99.90
25983;DHT22;13773;48.868;10.730;2023-04-03T00:53:35;2.00;99.90
25983;DHT22;13773;48.868;10.730;2023-04-03T00:56:05;2.00;99.90
25983;DHT22;13773;48.868;10.730;2023-04-03T00:58:37;2.00;99.90
25983;DHT22;13773;48.868;10.730;2023-04-03T01:01:07;2.00;99.90
25983;DHT22;13773;48.868;10.730;2023-04-03T01:03:33;1.90;99.90
25983;DHT22;13773;48.868;10.730;2023-04-03T01:05:59;2.00;99.90
25983;DHT22;13773;48.868;10.730;2023-04-03T01:08:25;1.90;99.90
25983;DHT22;13773;48.868;10.730;2023-04-03T01:10:51;1.90;99.90
25983;DHT22;13773;48.868;10.730;2023-04-03T01:13:21;1.90;99.90
25983;DHT22;13773;48.868;10.730;2023-04-03T01:15:47;1.90;99.90
25983;DHT22;13773;48.868;10.730;2023-04-03T01:18:13;1.90;99.90
25983;DHT22;13773;48.868;10.730;2023-04-03T01:24:22;1.90;99.90
25983;DHT22;13773;48.868;10.730;2023-04-03T01:26:50;1.90;99.90
25983;DHT22;13773;48.868;10.730;2023-04-03T01:29:16;1.90;99.90
25983;DHT22;13773;48.868;10.730;2023-04-03T01:31:49;2.00;99.90
25983;DHT22;13773;48.868;10.730;2023-04-03T01:34:15;2.00;99.90
25983;DHT22;13773;48.868;10.730;2023-04-03T01:36:40;1.90;99.90
25983;DHT22;13773;48.868;10.730;2023-04-03T01:39:06;1.90;99.90
25983;DHT22;13773;48.868;10.730;2023-04-03T01:41:32;1.90;99.90
25983;DHT22;13773;48.868;10.730;2023-04-03T01:43:58;1.90;99.90
25983;DHT22;13773;48.868;10.730;2023-04-03T01:46:23;1.90;99.90
25983;DHT22;13773;48.868;10.730;2023-04-03T01:48:49;1.90;99.90
25983;DHT22;13773;48.868;10.730;2023-04-03T01:51:15;1.80;99.90
25983;DHT22;13773;48.868;10.730;2023-04-03T01:53:41;1.90;99.90
25983;DHT22;13773;48.868;10.730;2023-04-03T01:56:07;1.90;99.90
25983;DHT22;13773;48.868;10.730;2023-04-03T01:58:33;1.90;99.90
25983;DHT22;13773;48.868;10.730;2023-04-03T02:00:59;1.80;99.90
25983;DHT22;13773;48.868;10.730;2023-04-03T02:03:24;1.80;99.90
25983;DHT22;13773;48.868;10.730;2023-04-03T02:05:50;1.80;99.90
25983;DHT22;13773;48.868;10.730;2023-04-03T02:08:16;1.80;99.90
25983;DHT22;13773;48.868;10.730;2023-04-03T02:10:49;1.80;99.90
25983;DHT22;13773;48.868;10.730;2023-04-03T02:13:16;1.80;99.90
25983;DHT22;13773;48.868;10.730;2023-04-03T02:15:42;1.80;99.90
25983;DHT22;13773;48.868;10.730;2023-04-03T02:18:08;1.80;99.90
25983;DHT22;13773;48.868;10.730;2023-04-03T02:20:33;1.80;99.90
25983;DHT22;13773;48.868;10.730;2023-04-03T02:22:59;1.80;99.90
25983;DHT22;13773;48.868;10.730;2023-04-03T02:25:25;1.80;99.90
25983;DHT22;13773;48.868;10.730;2023-04-03T02:27:51;1.80;99.90
25983;DHT22;13773;48.868;10.730;2023-04-03T02:30:17;1.70;99.90
25983;DHT22;13773;48.868;10.730;2023-04-03T02:32:43;1.70;99.90
25983;DHT22;13773;48.868;10.730;2023-04-03T02:35:11;1.70;99.90
25983;DHT22;13773;48.868;10.730;2023-04-03T02:37:37;1.70;99.90
25983;DHT22;13773;48.868;10.730;2023-04-03T02:40:03;1.70;99.90
25983;DHT22;13773;48.868;10.730;2023-04-03T02:42:29;1.60;99.90
25983;DHT22;13773;48.868;10.730;2023-04-03T02:44:55;1.60;99.90
25983;DHT22;13773;48.868;10.730;2023-04-03T02:47:21;1.60;99.90
25983;DHT22;13773;48.868;10.730;2023-04-03T02:49:47;1.60;99.90
25983;DHT22;13773;48.868;10.730;2023-04-03T02:52:14;1.50;99.90
25983;DHT22;13773;48.868;10.730;2023-04-03T02:54:39;1.60;99.90
25983;DHT22;13773;48.868;10.730;2023-04-03T02:57:06;1.60;99.90
25983;DHT22;13773;48.868;10.730;2023-04-03T02:59:35;1.60;99.90
25983;DHT22;13773;48.868;10.730;2023-04-03T03:02:01;1.50;99.90
25983;DHT22;13773;48.868;10.730;2023-04-03T03:04:27;1.50;99.90
25983;DHT22;13773;48.868;10.730;2023-04-03T03:06:52;1.50;99.90
25983;DHT22;13773;48.868;10.730;2023-04-03T03:09:18;1.50;99.90
25983;DHT22;13773;48.868;10.730;2023-04-03T03:11:44;1.50;99.90
25983;DHT22;13773;48.868;10.730;2023-04-03T03:14:09;1.40;99.90
25983;DHT22;13773;48.868;10.730;2023-04-03T03:16:35;1.40;99.90
25983;DHT22;13773;48.868;10.730;2023-04-03T03:19:01;1.20;99.90
25983;DHT22;13773;48.868;10.730;2023-04-03T03:21:27;1.20;99.90
25983;DHT22;13773;48.868;10.730;2023-04-03T03:23:53;1.10;99.90
25983;DHT22;13773;48.868;10.730;2023-04-03T03:26:18;0.90;99.90
25983;DHT22;13773;48.868;10.730;2023-04-03T03:28:44;0.90;99.90
25983;DHT22;13773;48.868;10.730;2023-04-03T03:31:11;0.80;99.90
25983;DHT22;13773;48.868;10.730;2023-04-03T03:33:37;0.60;99.90
25983;DHT22;13773;48.868;10.730;2023-04-03T03:36:03;0.60;99.90
25983;DHT22;13773;48.868;10.730;2023-04-03T03:38:29;0.50;99.90
25983;DHT22;13773;48.868;10.730;2023-04-03T03:40:55;0.40;99.90
25983;DHT22;13773;48.868;10.730;2023-04-03T03:43:20;0.40;99.90
25983;DHT22;13773;48.868;10.730;2023-04-03T03:45:50;0.40;99.90
25983;DHT22;13773;48.868;10.730;2023-04-03T03:48:16;0.40;99.90
25983;DHT22;13773;48.868;10.730;2023-04-03T03:50:42;0.40;99.90
25983;DHT22;13773;48.868;10.730;2023-04-03T03:53:08;0.40;99.90
25983;DHT22;13773;48.868;10.730;2023-04-03T03:55:33;0.50;99.90
25983;DHT22;13773;48.868;10.730;2023-04-03T03:57:59;0.50;99.90
25983;DHT22;13773;48.868;10.730;2023-04-03T04:00:26;0.50;99.90
25983;DHT22;13773;48.868;10.730;2023-04-03T04:02:52;0.50;99.90
25983;DHT22;13773;48.868;10.730;2023-04-03T04:05:18;0.60;99.90
25983;DHT22;13773;48.868;10.730;2023-04-03T04:07:43;0.60;99.90
25983;DHT22;13773;48.868;10.730;2023-04-03T04:10:09;0.60;99.90
25983;DHT22;13773;48.868;10.730;2023-04-03T04:12:35;0.70;99.90
25983;DHT22;13773;48.868;10.730;2023-04-03T04:15:01;0.70;99.90
25983;DHT22;13773;48.868;10.730;2023-04-03T04:17:27;0.70;99.90
25983;DHT22;13773;48.868;10.730;2023-04-03T04:19:52;0.70;99.90
25983;DHT22;13773;48.868;10.730;2023-04-03T04:22:18;0.70;99.90
25983;DHT22;13773;48.868;10.730;2023-04-03T04:24:44;0.70;99.90
25983;DHT22;13773;48.868;10.730;2023-04-03T04:27:10;0.70;99.90
25983;DHT22;13773;48.868;10.730;2023-04-03T04:29:36;0.70;99.90
25983;DHT22;13773;48.868;10.730;2023-04-03T04:32:05;0.70;99.90
25983;DHT22;13773;48.868;10.730;2023-04-03T04:34:30;0.70;99.90
25983;DHT22;13773;48.868;10.730;2023-04-03T04:36:56;0.70;99.90
25983;DHT22;13773;48.868;10.730;2023-04-03T04:39:22;0.70;99.90
25983;DHT22;13773;48.868;10.730;2023-04-03T04:41:48;0.70;99.90
25983;DHT22;13773;48.868;10.730;2023-04-03T04:44:13;0.70;99.90
25983;DHT22;13773;48.868;10.730;2023-04-03T04:46:40;0.70;99.90
25983;DHT22;13773;48.868;10.730;2023-04-03T04:49:05;0.70;99.90
25983;DHT22;13773;48.868;10.730;2023-04-03T04:51:31;0.70;99.90
25983;DHT22;13773;48.868;10.730;2023-04-03T04:53:57;0.70;99.90
25983;DHT22;13773;48.868;10.730;2023-04-03T04:56:22;0.70;99.90
25983;DHT22;13773;48.868;10.730;2023-04-03T04:58:48;0.70;99.90
25983;DHT22;13773;48.868;10.730;2023-04-03T05:01:14;0.80;99.90
25983;DHT22;13773;48.868;10.730;2023-04-03T05:03:40;0.80;99.90
25983;DHT22;13773;48.868;10.730;2023-04-03T05:06:06;0.80;99.90
25983;DHT22;13773;48.868;10.730;2023-04-03T05:08:32;0.80;99.90
25983;DHT22;13773;48.868;10.730;2023-04-03T05:10:58;0.80;99.90
25983;DHT22;13773;48.868;10.730;2023-04-03T05:13:23;0.80;99.90
25983;DHT22;13773;48.868;10.730;2023-04-03T05:15:49;0.80;99.90
25983;DHT22;13773;48.868;10.730;2023-04-03T05:18:15;0.80;99.90
25983;DHT22;13773;48.868;10.730;2023-04-03T05:20:41;0.90;99.90
25983;DHT22;13773;48.868;10.730;2023-04-03T05:23:09;0.80;99.90
25983;DHT22;13773;48.868;10.730;2023-04-03T05:25:37;0.90;99.90
25983;DHT22;13773;48.868;10.730;2023-04-03T05:28:03;0.90;99.90
25983;DHT22;13773;48.868;10.730;2023-04-03T05:30:29;1.00;99.90
25983;DHT22;13773;48.868;10.730;2023-04-03T05:32:54;0.90;99.90
25983;DHT22;13773;48.868;10.730;2023-04-03T05:35:21;1.00;99.90
25983;DHT22;13773;48.868;10.730;2023-04-03T05:37:46;1.00;99.90
25983;DHT22;13773;48.868;10.730;2023-04-03T05:40:12;1.00;99.90
25983;DHT22;13773;48.868;10.730;2023-04-03T05:42:38;1.10;99.90
25983;DHT22;13773;48.868;10.730;2023-04-03T05:45:04;1.00;99.90
25983;DHT22;13773;48.868;10.730;2023-04-03T05:47:30;1.10;99.90
25983;DHT22;13773;48.868;10.730;2023-04-03T05:49:56;1.10;99.90
25983;DHT22;13773;48.868;10.730;2023-04-03T05:52:30;1.20;99.90
25983;DHT22;13773;48.868;10.730;2023-04-03T05:54:57;1.20;99.90
25983;DHT22;13773;48.868;10.730;2023-04-03T05:57:23;1.10;99.90
25983;DHT22;13773;48.868;10.730;2023-04-03T05:59:49;1.20;99.90
25983;DHT22;13773;48.868;10.730;2023-04-03T06:02:17;1.20;99.90
25983;DHT22;13773;48.868;10.730;2023-04-03T06:04:44;1.30;99.90
25983;DHT22;13773;48.868;10.730;2023-04-03T06:07:12;1.30;99.90
25983;DHT22;13773;48.868;10.730;2023-04-03T06:09:38;1.20;99.90
25983;DHT22;13773;48.868;10.730;2023-04-03T06:12:04;1.20;99.90
25983;DHT22;13773;48.868;10.730;2023-04-03T06:14:30;1.40;99.90
25983;DHT22;13773;48.868;10.730;2023-04-03T06:16:56;1.40;99.90
25983;DHT22;13773;48.868;10.730;2023-04-03T06:19:22;1.40;99.90
25983;DHT22;13773;48.868;10.730;2023-04-03T06:21:48;1.40;99.90
25983;DHT22;13773;48.868;10.730;2023-04-03T06:24:15;1.50;99.90
25983;DHT22;13773;48.868;10.730;2023-04-03T06:26:42;1.50;99.90
25983;DHT22;13773;48.868;10.730;2023-04-03T06:29:08;1.60;99.90
25983;DHT22;13773;48.868;10.730;2023-04-03T06:31:34;1.60;99.90
25983;DHT22;13773;48.868;10.730;2023-04-03T06:34:02;1.70;99.90
25983;DHT22;13773;48.868;10.730;2023-04-03T06:36:28;1.70;99.90
25983;DHT22;13773;48.868;10.730;2023-04-03T06:38:55;1.80;99.90
25983;DHT22;13773;48.868;10.730;2023-04-03T06:41:21;1.80;99.90
25983;DHT22;13773;48.868;10.730;2023-04-03T06:43:47;1.80;99.90
25983;DHT22;13773;48.868;10.730;2023-04-03T06:46:21;2.10;99.90
25983;DHT22;13773;48.868;10.730;2023-04-03T06:48:47;2.00;99.90
25983;DHT22;13773;48.868;10.730;2023-04-03T06:51:25;2.00;99.90
25983;DHT22;13773;48.868;10.730;2023-04-03T06:53:53;2.20;99.90
25983;DHT22;13773;48.868;10.730;2023-04-03T06:56:19;2.10;99.90
25983;DHT22;13773;48.868;10.730;2023-04-03T06:58:45;2.20;99.90
25983;DHT22;13773;48.868;10.730;2023-04-03T07:01:14;2.20;99.90
25983;DHT22;13773;48.868;10.730;2023-04-03T07:03:40;3.50;99.90
25983;DHT22;13773;48.868;10.730;2023-04-03T07:06:07;2.00;99.90
25983;DHT22;13773;48.868;10.730;2023-04-03T07:08:34;2.10;99.90
25983;DHT22;13773;48.868;10.730;2023-04-03T07:11:00;2.10;99.90
25983;DHT22;13773;48.868;10.730;2023-04-03T07:13:26;2.10;99.90
25983;DHT22;13773;48.868;10.730;2023-04-03T07:15:52;2.00;99.90
25983;DHT22;13773;48.868;10.730;2023-04-03T07:18:18;2.20;99.90
25983;DHT22;13773;48.868;10.730;2023-04-03T07:20:44;2.20;99.90
25983;DHT22;13773;48.868;10.730;2023-04-03T07:23:10;2.20;99.90
25983;DHT22;13773;48.868;10.730;2023-04-03T07:25:36;2.50;99.90
25983;DHT22;13773;48.868;10.730;2023-04-03T07:28:03;2.60;99.90
25983;DHT22;13773;48.868;10.730;2023-04-03T07:30:29;2.40;99.90
25983;DHT22;13773;48.868;10.730;2023-04-03T07:32:55;2.70;99.90
25983;DHT22;13773;48.868;10.730;2023-04-03T07:35:20;2.70;99.90
25983;DHT22;13773;48.868;10.730;2023-04-03T07:37:46;2.60;99.90
25983;DHT22;13773;48.868;10.730;2023-04-03T07:40:12;2.90;99.90
25983;DHT22;13773;48.868;10.730;2023-04-03T07:42:38;2.80;99.90
25983;DHT22;13773;48.868;10.730;2023-04-03T07:45:04;3.00;99.90
25983;DHT22;13773;48.868;10.730;2023-04-03T07:47:30;3.00;99.90
25983;DHT22;13773;48.868;10.730;2023-04-03T07:49:56;2.90;99.90
25983;DHT22;13773;48.868;10.730;2023-04-03T07:52:23;0.00;99.90
25983;DHT22;13773;48.868;10.730;2023-04-03T07:54:48;3.10;99.90
25983;DHT22;13773;48.868;10.730;2023-04-03T07:57:14;3.40;99.90
25983;DHT22;13773;48.868;10.730;2023-04-03T07:59:40;3.50;99.90
25983;DHT22;13773;48.868;10.730;2023-04-03T08:02:10;3.50;99.90
25983;DHT22;13773;48.868;10.730;2023-04-03T08:04:35;3.30;99.90
25983;DHT22;13773;48.868;10.730;2023-04-03T08:07:01;3.30;99.90
25983;DHT22;13773;48.868;10.730;2023-04-03T08:09:27;3.40;99.90
25983;DHT22;13773;48.868;10.730;2023-04-03T08:11:52;3.60;99.90
25983;DHT22;13773;48.868;10.730;2023-04-03T08:14:19;3.40;99.90
25983;DHT22;13773;48.868;10.730;2023-04-03T08:16:47;3.50;99.90
25983;DHT22;13773;48.868;10.730;2023-04-03T08:19:13;3.30;99.90
25983;DHT22;13773;48.868;10.730;2023-04-03T08:21:42;3.50;99.90
25983;DHT22;13773;48.868;10.730;2023-04-03T08:24:08;3.60;99.90
25983;DHT22;13773;48.868;10.730;2023-04-03T08:26:34;3.70;99.90
25983;DHT22;13773;48.868;10.730;2023-04-03T08:29:00;3.70;99.90
25983;DHT22;13773;48.868;10.730;2023-04-03T08:31:26;3.80;99.90
25983;DHT22;13773;48.868;10.730;2023-04-03T08:33:53;3.70;99.90
25983;DHT22;13773;48.868;10.730;2023-04-03T08:36:26;3.80;99.90
25983;DHT22;13773;48.868;10.730;2023-04-03T08:38:54;3.90;99.90
25983;DHT22;13773;48.868;10.730;2023-04-03T08:46:58;3.70;99.90
25983;DHT22;13773;48.868;10.730;2023-04-03T08:49:39;3.70;99.90
25983;DHT22;13773;48.868;10.730;2023-04-03T08:52:12;4.00;99.90
25983;DHT22;13773;48.868;10.730;2023-04-03T08:54:59;4.40;99.90
25983;DHT22;13773;48.868;10.730;2023-04-03T08:57:44;4.00;99.90
25983;DHT22;13773;48.868;10.730;2023-04-03T09:00:19;4.00;99.90
25983;DHT22;13773;48.868;10.730;2023-04-03T09:02:46;4.30;99.90
25983;DHT22;13773;48.868;10.730;2023-04-03T09:05:18;4.10;99.90
25983;DHT22;13773;48.868;10.730;2023-04-03T09:07:52;4.00;99.90
25983;DHT22;13773;48.868;10.730;2023-04-03T09:10:28;4.40;99.90
25983;DHT22;13773;48.868;10.730;2023-04-03T09:13:28;4.40;99.90
25983;DHT22;13773;48.868;10.730;2023-04-03T09:15:57;4.50;99.90
25983;DHT22;13773;48.868;10.730;2023-04-03T09:18:30;4.50;99.90
25983;DHT22;13773;48.868;10.730;2023-04-03T09:21:27;4.50;99.90
25983;DHT22;13773;48.868;10.730;2023-04-03T09:23:59;4.60;99.90
25983;DHT22;13773;48.868;10.730;2023-04-03T09:27:03;4.30;99.90
25983;DHT22;13773;48.868;10.730;2023-04-03T09:29:23;4.40;99.90
25983;DHT22;13773;48.868;10.730;2023-04-03T09:32:01;4.40;99.90
25983;DHT22;13773;48.868;10.730;2023-04-03T09:34:32;4.60;99.90
25983;DHT22;13773;48.868;10.730;2023-04-03T09:36:59;4.80;99.90
25983;DHT22;13773;48.868;10.730;2023-04-03T09:39:32;5.00;99.90
25983;DHT22;13773;48.868;10.730;2023-04-03T09:42:15;5.40;99.90
25983;DHT22;13773;48.868;10.730;2023-04-03T09:44:44;5.10;99.90
25983;DHT22;13773;48.868;10.730;2023-04-03T09:47:26;4.80;99.90
25983;DHT22;13773;48.868;10.730;2023-04-03T09:50:20;4.70;99.90
25983;DHT22;13773;48.868;10.730;2023-04-03T09:52:49;7.80;99.90
25983;DHT22;13773;48.868;10.730;2023-04-03T09:55:22;4.80;99.90
25983;DHT22;13773;48.868;10.730;2023-04-03T09:57:57;5.10;99.90
25983;DHT22;13773;48.868;10.730;2023-04-03T10:00:40;5.30;99.90
25983;DHT22;13773;48.868;10.730;2023-04-03T10:03:33;4.70;99.90
25983;DHT22;13773;48.868;10.730;2023-04-03T10:06:02;4.80;99.90
25983;DHT22;13773;48.868;10.730;2023-04-03T10:08:33;4.70;99.90
25983;DHT22;13773;48.868;10.730;2023-04-03T10:11:17;4.60;99.90
25983;DHT22;13773;48.868;10.730;2023-04-03T10:13:59;4.50;99.90
25983;DHT22;13773;48.868;10.730;2023-04-03T10:16:29;4.80;99.90
25983;DHT22;13773;48.868;10.730;2023-04-03T10:19:03;4.70;99.90
25983;DHT22;13773;48.868;10.730;2023-04-03T10:33:08;5.30;99.90
25983;DHT22;13773;48.868;10.730;2023-04-03T10:38:33;4.80;99.90
25983;DHT22;13773;48.868;10.730;2023-04-03T10:41:17;4.60;99.90
25983;DHT22;13773;48.868;10.730;2023-04-03T10:46:52;4.80;99.90
25983;DHT22;13773;48.868;10.730;2023-04-03T10:54:40;5.00;99.90
25983;DHT22;13773;48.868;10.730;2023-04-03T10:57:10;5.10;99.90
25983;DHT22;13773;48.868;10.730;2023-04-03T10:59:40;5.20;99.90
25983;DHT22;13773;48.868;10.730;2023-04-03T11:02:37;5.20;99.90
25983;DHT22;13773;48.868;10.730;2023-04-03T11:07:47;5.00;99.90
25983;DHT22;13773;48.868;10.730;2023-04-03T11:10:47;5.30;99.90
25983;DHT22;13773;48.868;10.730;2023-04-03T11:13:19;4.90;99.90
25983;DHT22;13773;48.868;10.730;2023-04-03T11:15:48;5.30;99.90
25983;DHT22;13773;48.868;10.730;2023-04-03T11:18:24;5.70;99.90
25983;DHT22;13773;48.868;10.730;2023-04-03T11:21:33;5.90;99.90
25983;DHT22;13773;48.868;10.730;2023-04-03T11:24:03;5.70;99.90
25983;DHT22;13773;48.868;10.730;2023-04-03T11:26:37;5.40;99.90
25983;DHT22;13773;48.868;10.730;2023-04-03T11:29:14;5.40;99.90
25983;DHT22;13773;48.868;10.730;2023-04-03T11:31:58;5.50;99.90
25983;DHT22;13773;48.868;10.730;2023-04-03T11:34:40;6.10;99.90
25983;DHT22;13773;48.868;10.730;2023-04-03T11:37:28;5.90;99.90
25983;DHT22;13773;48.868;10.730;2023-04-03T11:42:37;5.70;99.90
25983;DHT22;13773;48.868;10.730;2023-04-03T11:47:54;5.40;99.90
25983;DHT22;13773;48.868;10.730;2023-04-03T12:27:07;6.00;99.90
25983;DHT22;13773;48.868;10.730;2023-04-03T12:29:50;6.00;99.90
25983;DHT22;13773;48.868;10.730;2023-04-03T12:35:08;5.50;99.90
25983;DHT22;13773;48.868;10.730;2023-04-03T12:41:08;5.60;99.90
25983;DHT22;13773;48.868;10.730;2023-04-03T12:46:24;6.00;99.90
25983;DHT22;13773;48.868;10.730;2023-04-03T12:48:57;6.10;99.90
25983;DHT22;13773;48.868;10.730;2023-04-03T12:51:37;6.30;99.30
25983;DHT22;13773;48.868;10.730;2023-04-03T12:54:31;6.20;99.90
25983;DHT22;13773;48.868;10.730;2023-04-03T12:57:12;6.80;99.90
25983;DHT22;13773;48.868;10.730;2023-04-03T12:59:38;6.50;98.90
25983;DHT22;13773;48.868;10.730;2023-04-03T13:04:46;6.30;99.90
25983;DHT22;13773;48.868;10.730;2023-04-03T13:07:29;6.00;99.90
25983;DHT22;13773;48.868;10.730;2023-04-03T13:12:55;5.50;99.90
25983;DHT22;13773;48.868;10.730;2023-04-03T13:15:26;5.60;99.90
25983;DHT22;13773;48.868;10.730;2023-04-03T13:17:53;5.10;99.90
25983;DHT22;13773;48.868;10.730;2023-04-03T13:20:26;5.10;99.90
25983;DHT22;13773;48.868;10.730;2023-04-03T13:23:05;5.20;99.90
25983;DHT22;13773;48.868;10.730;2023-04-03T13:25:35;5.60;99.90
25983;DHT22;13773;48.868;10.730;2023-04-03T13:28:04;6.20;99.90
25983;DHT22;13773;48.868;10.730;2023-04-03T13:30:36;6.10;99.90
25983;DHT22;13773;48.868;10.730;2023-04-03T13:33:05;7.10;99.50
25983;DHT22;13773;48.868;10.730;2023-04-03T13:35:35;5.90;99.90
25983;DHT22;13773;48.868;10.730;2023-04-03T13:38:07;5.90;99.90
25983;DHT22;13773;48.868;10.730;2023-04-03T13:40:58;5.60;99.90
25983;DHT22;13773;48.868;10.730;2023-04-03T13:43:32;5.30;99.90
25983;DHT22;13773;48.868;10.730;2023-04-03T13:48:41;5.40;99.90
25983;DHT22;13773;48.868;10.730;2023-04-03T13:51:18;5.40;99.90
25983;DHT22;13773;48.868;10.730;2023-04-03T13:53:54;5.70;99.90
25983;DHT22;13773;48.868;10.730;2023-04-03T13:56:33;5.60;99.90
25983;DHT22;13773;48.868;10.730;2023-04-03T14:02:32;5.60;99.90
25983;DHT22;13773;48.868;10.730;2023-04-03T14:07:11;6.10;99.90
25983;DHT22;13773;48.868;10.730;2023-04-03T14:09:37;6.00;99.90
25983;DHT22;13773;48.868;10.730;2023-04-03T14:12:31;6.30;99.90
25983;DHT22;13773;48.868;10.730;2023-04-03T14:15:00;6.60;99.40
25983;DHT22;13773;48.868;10.730;2023-04-03T14:17:27;6.20;96.80
25983;DHT22;13773;48.868;10.730;2023-04-03T14:19:54;6.60;98.90
25983;DHT22;13773;48.868;10.730;2023-04-03T14:22:24;6.90;98.00
25983;DHT22;13773;48.868;10.730;2023-04-03T14:24:50;6.90;97.50
25983;DHT22;13773;48.868;10.730;2023-04-03T14:27:20;6.60;97.60
25983;DHT22;13773;48.868;10.730;2023-04-03T14:29:47;6.60;99.10
25983;DHT22;13773;48.868;10.730;2023-04-03T14:32:15;5.90;99.60
25983;DHT22;13773;48.868;10.730;2023-04-03T14:34:42;5.60;99.90
25983;DHT22;13773;48.868;10.730;2023-04-03T14:37:20;5.40;99.80
25983;DHT22;13773;48.868;10.730;2023-04-03T14:39:47;5.50;99.90
25983;DHT22;13773;48.868;10.730;2023-04-03T14:42:16;5.50;99.90
25983;DHT22;13773;48.868;10.730;2023-04-03T14:44:42;5.70;99.90
25983;DHT22;13773;48.868;10.730;2023-04-03T14:47:17;6.00;99.40
25983;DHT22;13773;48.868;10.730;2023-04-03T14:49:43;6.50;98.20
25983;DHT22;13773;48.868;10.730;2023-04-03T14:52:31;6.50;97.30
25983;DHT22;13773;48.868;10.730;2023-04-03T14:54:57;6.60;96.40
25983;DHT22;13773;48.868;10.730;2023-04-03T14:57:25;7.00;97.60
25983;DHT22;13773;48.868;10.730;2023-04-03T14:59:52;7.00;96.20
25983;DHT22;13773;48.868;10.730;2023-04-03T15:04:46;6.80;96.80
25983;DHT22;13773;48.868;10.730;2023-04-03T15:07:11;6.20;96.60
25983;DHT22;13773;48.868;10.730;2023-04-03T15:09:37;5.90;97.00
25983;DHT22;13773;48.868;10.730;2023-04-03T15:12:03;5.90;98.20
25983;DHT22;13773;48.868;10.730;2023-04-03T15:14:29;5.60;97.30
25983;DHT22;13773;48.868;10.730;2023-04-03T15:16:54;5.60;97.40
25983;DHT22;13773;48.868;10.730;2023-04-03T15:19:20;5.50;96.60
25983;DHT22;13773;48.868;10.730;2023-04-03T15:21:46;5.50;96.90
25983;DHT22;13773;48.868;10.730;2023-04-03T15:24:11;5.70;96.70
25983;DHT22;13773;48.868;10.730;2023-04-03T15:26:37;5.90;96.70
25983;DHT22;13773;48.868;10.730;2023-04-03T15:29:04;6.20;96.50
25983;DHT22;13773;48.868;10.730;2023-04-03T15:31:29;6.20;96.30
25983;DHT22;13773;48.868;10.730;2023-04-03T15:33:55;6.20;97.50
25983;DHT22;13773;48.868;10.730;2023-04-03T15:36:21;6.20;96.60
25983;DHT22;13773;48.868;10.730;2023-04-03T15:38:46;6.20;96.10
25983;DHT22;13773;48.868;10.730;2023-04-03T15:41:12;5.90;96.50
25983;DHT22;13773;48.868;10.730;2023-04-03T15:43:38;6.10;97.20
25983;DHT22;13773;48.868;10.730;2023-04-03T15:46:04;8.40;97.80
25983;DHT22;13773;48.868;10.730;2023-04-03T15:48:30;5.60;97.20
25983;DHT22;13773;48.868;10.730;2023-04-03T15:50:56;5.40;96.30
25983;DHT22;13773;48.868;10.730;2023-04-03T15:53:22;5.40;96.60
25983;DHT22;13773;48.868;10.730;2023-04-03T15:55:47;5.40;97.00
25983;DHT22;13773;48.868;10.730;2023-04-03T15:58:13;5.60;97.10
25983;DHT22;13773;48.868;10.730;2023-04-03T16:00:39;5.90;96.10
25983;DHT22;13773;48.868;10.730;2023-04-03T16:03:10;6.00;95.90
25983;DHT22;13773;48.868;10.730;2023-04-03T16:05:38;6.10;95.30
25983;DHT22;13773;48.868;10.730;2023-04-03T16:08:05;6.20;95.50
25983;DHT22;13773;48.868;10.730;2023-04-03T16:10:32;6.00;95.20
25983;DHT22;13773;48.868;10.730;2023-04-03T16:12:57;5.70;94.20
25983;DHT22;13773;48.868;10.730;2023-04-03T16:15:24;5.60;95.00
25983;DHT22;13773;48.868;10.730;2023-04-03T16:17:50;5.50;95.20
25983;DHT22;13773;48.868;10.730;2023-04-03T16:20:16;5.30;95.30
25983;DHT22;13773;48.868;10.730;2023-04-03T16:22:43;5.40;95.90
25983;DHT22;13773;48.868;10.730;2023-04-03T16:25:10;5.30;96.00
25983;DHT22;13773;48.868;10.730;2023-04-03T16:27:35;5.30;96.00
25983;DHT22;13773;48.868;10.730;2023-04-03T16:30:02;5.40;96.50
25983;DHT22;13773;48.868;10.730;2023-04-03T16:32:29;5.50;96.20
25983;DHT22;13773;48.868;10.730;2023-04-03T16:34:56;5.50;96.70
25983;DHT22;13773;48.868;10.730;2023-04-03T16:37:22;5.40;96.80
25983;DHT22;13773;48.868;10.730;2023-04-03T16:39:47;5.40;97.70
25983;DHT22;13773;48.868;10.730;2023-04-03T16:42:13;5.40;97.00
25983;DHT22;13773;48.868;10.730;2023-04-03T16:44:39;5.20;96.30
25983;DHT22;13773;48.868;10.730;2023-04-03T16:47:06;5.10;96.70
25983;DHT22;13773;48.868;10.730;2023-04-03T16:49:32;5.00;97.00
25983;DHT22;13773;48.868;10.730;2023-04-03T16:52:00;5.90;98.00
25983;DHT22;13773;48.868;10.730;2023-04-03T16:54:26;5.00;97.20
25983;DHT22;13773;48.868;10.730;2023-04-03T16:56:52;4.90;97.50
25983;DHT22;13773;48.868;10.730;2023-04-03T16:59:18;5.00;97.10
25983;DHT22;13773;48.868;10.730;2023-04-03T17:01:43;4.90;97.00
25983;DHT22;13773;48.868;10.730;2023-04-03T17:04:09;4.90;97.50
25983;DHT22;13773;48.868;10.730;2023-04-03T17:06:35;4.90;97.20
25983;DHT22;13773;48.868;10.730;2023-04-03T17:09:01;4.80;96.80
25983;DHT22;13773;48.868;10.730;2023-04-03T17:11:27;4.90;97.00
25983;DHT22;13773;48.868;10.730;2023-04-03T17:13:53;4.90;96.90
25983;DHT22;13773;48.868;10.730;2023-04-03T17:16:19;4.80;97.60
25983;DHT22;13773;48.868;10.730;2023-04-03T17:18:45;4.80;97.70
25983;DHT22;13773;48.868;10.730;2023-04-03T17:21:13;4.80;98.50
25983;DHT22;13773;48.868;10.730;2023-04-03T17:23:41;4.70;99.90